Toyofukumaru — JD2177 — position and weather

sailwx.info

Track history (hours):
 
Tides and Currents Weather Stations Pressure Air Temp Water Temp Dewpoint Dewpoint Depression Visibility Wind Speed Wind Dir Waves Ship Positions

Toyofukumaru

Last reported at 2017-Oct-18 07:44 UTC. Time now 2017-Oct-19 07:22 UTC.
Position N 33°55' E 135°00'.

Length 165 m; draft 5.2 m.

Type: Cargo ship. MMSI: 431200688.

Date/timePositionNaut miles runAvg speedWind from/ knotsBaromVisibWave heightAir tempDewpointWater temp
2017-Oct-18 07:44N 33°55' E 135°00'520.6
2017-Oct-18 07:30N 34°00' E 134°59'1020.5
2017-Oct-18 07:01N 34°10' E 134°59'1020.9
2017-Oct-18 06:30N 34°21' E 134°59'1020.7
2017-Oct-18 06:00N 34°31' E 135°02'713.4
2017-Oct-18 05:30N 34°36' E 134°56'  
2017-Oct-15 21:42N 34°28' E 134°38'315.6
2017-Oct-15 21:29N 34°31' E 134°40'919.4
2017-Oct-15 21:00N 34°35' E 134°50'1019.7
2017-Oct-15 20:30N 34°37' E 135°02'918.5
2017-Oct-15 20:00N 34°28' E 135°04'1020.3
2017-Oct-15 19:30N 34°19' E 135°00'1019.7
2017-Oct-15 19:00N 34°09' E 135°01'1019.9
2017-Oct-15 18:30N 33°59' E 135°01'221 7.8
2017-Oct-14 14:16N 34°51' E 139°21'518.3
2017-Oct-14 14:00N 34°54' E 139°25'1019.5
2017-Oct-14 13:30N 35°00' E 139°34'1020.5
2017-Oct-14 13:00N 35°07' E 139°43'815.4
2017-Oct-14 12:30N 35°15' E 139°46'612.5
2017-Oct-14 12:00N 35°20' E 139°42'5 9.0
2017-Oct-14 11:30N 35°23' E 139°39'0 0.0
2017-Oct-14 11:00N 35°23' E 139°39'0 0.0
2017-Oct-14 10:30N 35°23' E 139°39'0 0.0
2017-Oct-14 10:00N 35°23' E 139°39'0 0.0
2017-Oct-14 09:30N 35°23' E 139°39'0 0.0
2017-Oct-14 09:00N 35°23' E 139°39'0 0.0
2017-Oct-14 08:30N 35°23' E 139°39'0 0.0
2017-Oct-14 08:00N 35°23' E 139°39'0 0.0
2017-Oct-14 07:27N 35°23' E 139°39'0 0.0
2017-Oct-14 07:00N 35°23' E 139°39'0 0.0
2017-Oct-14 06:30N 35°23' E 139°39'0 0.0
2017-Oct-14 06:00N 35°23' E 139°39'0 0.0
2017-Oct-14 05:30N 35°23' E 139°39'0 0.3
2017-Oct-14 05:00N 35°24' E 139°39'713.2
2017-Oct-14 04:30N 35°26' E 139°46'1121.1
2017-Oct-14 04:00N 35°33' E 139°57'815.1
2017-Oct-14 03:30N 35°36' E 140°05'1 0.2
2017-Oct-13 20:12N 35°35' E 140°04'211.0
2017-Oct-13 20:00N 35°34' E 140°02'917.7
2017-Oct-13 19:30N 35°29' E 139°53'815.2
2017-Oct-13 19:00N 35°24' E 139°46'611.7
2017-Oct-13 18:30N 35°18' E 139°45'611.8
2017-Oct-13 18:00N 35°12' E 139°47'815.2
2017-Oct-13 17:30N 35°05' E 139°44'918.9
2017-Oct-13 17:00N 34°60' E 139°35'1020.6
2017-Oct-13 16:30N 34°53' E 139°25'228 7.5
2017-Oct-12 09:59N 33°55' E 134°58'920.3
2017-Oct-12 09:31N 34°04' E 134°58'1020.3
2017-Oct-12 09:01N 34°14' E 134°58'1019.2
2017-Oct-12 08:30N 34°24' E 135°00'1019.6
2017-Oct-12 08:00N 34°33' E 135°03'612.8
2017-Oct-12 07:30N 34°36' E 134°56'  
2017-Oct-09 21:30N 34°32' E 134°44'1019.5
2017-Oct-09 21:00N 34°36' E 134°55'612.4
2017-Oct-09 20:30N 34°37' E 135°02'3 5.6
2017-Oct-09 20:00N 34°35' E 135°05'510.2
2017-Oct-09 19:30N 34°30' E 135°05'917.3
2017-Oct-09 19:00N 34°22' E 135°01'917.4
2017-Oct-09 18:31N 34°13' E 135°00'1020.0
2017-Oct-09 18:01N 34°03' E 135°01'212 7.4
2017-Oct-08 13:36N 34°44' E 139°13'318.9
2017-Oct-08 13:25N 34°46' E 139°15'819.0
2017-Oct-08 12:59N 34°53' E 139°22'919.7
2017-Oct-08 12:30N 34°59' E 139°31'1020.1
2017-Oct-08 12:00N 35°05' E 139°41'917.3
2017-Oct-08 11:30N 35°12' E 139°46'612.1
2017-Oct-08 11:01N 35°18' E 139°44'612.8
2017-Oct-08 10:30N 35°23' E 139°40'1 1.1
2017-Oct-08 10:00N 35°23' E 139°39'0 0.0
2017-Oct-08 09:30N 35°23' E 139°39'0 0.0
2017-Oct-08 09:00N 35°23' E 139°39'0 0.0
2017-Oct-08 08:30N 35°23' E 139°39'0 0.0
2017-Oct-08 08:00N 35°23' E 139°39'  
Track history (hours):
 
Tides and Currents Weather Stations Pressure Air Temp Water Temp Dewpoint Dewpoint Depression Visibility Wind Speed Wind Dir Waves Ship Positions

Toyofukumaru

Last reported at 2017-Oct-18 07:44 UTC. Time now 2017-Oct-19 07:22 UTC.
Position N 33°55' E 135°00'.

Length 165 m; draft 5.2 m.

Type: Cargo ship. MMSI: 431200688.

Date/timePositionNaut miles runAvg speedWind from/ knotsBaromVisibWave heightAir tempDewpointWater temp
2017-Oct-18 07:44N 33°55' E 135°00'520.6
2017-Oct-18 07:30N 34°00' E 134°59'1020.5
2017-Oct-18 07:01N 34°10' E 134°59'1020.9
2017-Oct-18 06:30N 34°21' E 134°59'1020.7
2017-Oct-18 06:00N 34°31' E 135°02'713.4
2017-Oct-18 05:30N 34°36' E 134°56'  
2017-Oct-15 21:42N 34°28' E 134°38'315.6
2017-Oct-15 21:29N 34°31' E 134°40'919.4
2017-Oct-15 21:00N 34°35' E 134°50'1019.7
2017-Oct-15 20:30N 34°37' E 135°02'918.5
2017-Oct-15 20:00N 34°28' E 135°04'1020.3
2017-Oct-15 19:30N 34°19' E 135°00'1019.7
2017-Oct-15 19:00N 34°09' E 135°01'1019.9
2017-Oct-15 18:30N 33°59' E 135°01'221 7.8
2017-Oct-14 14:16N 34°51' E 139°21'518.3
2017-Oct-14 14:00N 34°54' E 139°25'1019.5
2017-Oct-14 13:30N 35°00' E 139°34'1020.5
2017-Oct-14 13:00N 35°07' E 139°43'815.4
2017-Oct-14 12:30N 35°15' E 139°46'612.5
2017-Oct-14 12:00N 35°20' E 139°42'5 9.0
2017-Oct-14 11:30N 35°23' E 139°39'0 0.0
2017-Oct-14 11:00N 35°23' E 139°39'0 0.0
2017-Oct-14 10:30N 35°23' E 139°39'0 0.0
2017-Oct-14 10:00N 35°23' E 139°39'0 0.0
2017-Oct-14 09:30N 35°23' E 139°39'0 0.0
2017-Oct-14 09:00N 35°23' E 139°39'0 0.0
2017-Oct-14 08:30N 35°23' E 139°39'0 0.0
2017-Oct-14 08:00N 35°23' E 139°39'0 0.0
2017-Oct-14 07:27N 35°23' E 139°39'0 0.0
2017-Oct-14 07:00N 35°23' E 139°39'0 0.0
2017-Oct-14 06:30N 35°23' E 139°39'0 0.0
2017-Oct-14 06:00N 35°23' E 139°39'0 0.0
2017-Oct-14 05:30N 35°23' E 139°39'0 0.3
2017-Oct-14 05:00N 35°24' E 139°39'713.2
2017-Oct-14 04:30N 35°26' E 139°46'1121.1
2017-Oct-14 04:00N 35°33' E 139°57'815.1
2017-Oct-14 03:30N 35°36' E 140°05'1 0.2
2017-Oct-13 20:12N 35°35' E 140°04'211.0
2017-Oct-13 20:00N 35°34' E 140°02'917.7
2017-Oct-13 19:30N 35°29' E 139°53'815.2
2017-Oct-13 19:00N 35°24' E 139°46'611.7
2017-Oct-13 18:30N 35°18' E 139°45'611.8
2017-Oct-13 18:00N 35°12' E 139°47'815.2
2017-Oct-13 17:30N 35°05' E 139°44'918.9
2017-Oct-13 17:00N 34°60' E 139°35'1020.6
2017-Oct-13 16:30N 34°53' E 139°25'228 7.5
2017-Oct-12 09:59N 33°55' E 134°58'920.3
2017-Oct-12 09:31N 34°04' E 134°58'1020.3
2017-Oct-12 09:01N 34°14' E 134°58'1019.2
2017-Oct-12 08:30N 34°24' E 135°00'1019.6
2017-Oct-12 08:00N 34°33' E 135°03'612.8
2017-Oct-12 07:30N 34°36' E 134°56'  
2017-Oct-09 21:30N 34°32' E 134°44'1019.5
2017-Oct-09 21:00N 34°36' E 134°55'612.4
2017-Oct-09 20:30N 34°37' E 135°02'3 5.6
2017-Oct-09 20:00N 34°35' E 135°05'510.2
2017-Oct-09 19:30N 34°30' E 135°05'917.3
2017-Oct-09 19:00N 34°22' E 135°01'917.4
2017-Oct-09 18:31N 34°13' E 135°00'1020.0
2017-Oct-09 18:01N 34°03' E 135°01'212 7.4
2017-Oct-08 13:36N 34°44' E 139°13'318.9
2017-Oct-08 13:25N 34°46' E 139°15'819.0
2017-Oct-08 12:59N 34°53' E 139°22'919.7
2017-Oct-08 12:30N 34°59' E 139°31'1020.1
2017-Oct-08 12:00N 35°05' E 139°41'917.3
2017-Oct-08 11:30N 35°12' E 139°46'612.1
2017-Oct-08 11:01N 35°18' E 139°44'612.8
2017-Oct-08 10:30N 35°23' E 139°40'1 1.1
2017-Oct-08 10:00N 35°23' E 139°39'0 0.0
2017-Oct-08 09:30N 35°23' E 139°39'0 0.0
2017-Oct-08 09:00N 35°23' E 139°39'0 0.0
2017-Oct-08 08:30N 35°23' E 139°39'0 0.0
2017-Oct-08 08:00N 35°23' E 139°39'  

Dump ship's entire track history